createdAt,value
2023-04-17T00:01:16.023Z,11.86
2023-04-17T00:03:45.049Z,11.85
2023-04-17T00:06:14.272Z,11.85
2023-04-17T00:08:43.693Z,11.83
2023-04-17T00:11:11.913Z,11.86
2023-04-17T00:13:44.186Z,11.86
2023-04-17T00:16:13.851Z,11.86
2023-04-17T00:18:43.091Z,11.87
2023-04-17T00:21:11.127Z,11.90
2023-04-17T00:23:39.680Z,11.91
2023-04-17T00:26:07.819Z,11.91
2023-04-17T00:28:36.840Z,11.91
2023-04-17T00:31:05.507Z,11.90
2023-04-17T00:33:33.763Z,11.89
2023-04-17T00:36:01.763Z,11.86
2023-04-17T00:38:30.034Z,11.87
2023-04-17T00:40:58.165Z,11.88
2023-04-17T00:43:26.217Z,11.90
2023-04-17T00:45:54.322Z,11.89
2023-04-17T00:48:24.304Z,11.89
2023-04-17T00:50:52.515Z,11.88
2023-04-17T00:53:20.572Z,11.87
2023-04-17T00:55:48.727Z,11.86
2023-04-17T00:58:16.867Z,11.86
2023-04-17T01:00:45.160Z,11.87
2023-04-17T01:03:13.457Z,11.87
2023-04-17T01:05:42.220Z,11.88
2023-04-17T01:08:10.888Z,11.87
2023-04-17T01:10:38.807Z,11.85
2023-04-17T01:13:07.660Z,11.82
2023-04-17T01:15:36.108Z,11.78
2023-04-17T01:18:04.394Z,11.75
2023-04-17T01:20:33.096Z,11.74
2023-04-17T01:23:01.226Z,11.72
2023-04-17T01:25:30.274Z,11.72
2023-04-17T01:27:58.410Z,11.73
2023-04-17T01:30:28.099Z,11.73
2023-04-17T01:33:01.178Z,11.74
2023-04-17T01:35:30.159Z,11.76
2023-04-17T01:37:58.991Z,11.79
2023-04-17T01:40:27.199Z,11.79
2023-04-17T01:42:55.320Z,11.80
2023-04-17T01:45:23.345Z,11.80
2023-04-17T01:47:51.900Z,11.81
2023-04-17T01:50:20.121Z,11.82
2023-04-17T01:52:48.586Z,11.82
2023-04-17T01:55:16.664Z,11.82
2023-04-17T01:57:44.728Z,11.82
2023-04-17T02:00:13.486Z,11.81
2023-04-17T02:02:44.365Z,11.81
2023-04-17T02:05:12.639Z,11.86
2023-04-17T02:07:41.013Z,11.90
2023-04-17T02:10:09.814Z,11.92
2023-04-17T02:12:38.287Z,11.94
2023-04-17T02:15:07.413Z,11.98
2023-04-17T02:17:35.699Z,12.01
2023-04-17T02:20:07.061Z,12.03
2023-04-17T02:22:35.087Z,12.05
2023-04-17T02:25:03.364Z,12.07
2023-04-17T02:34:43.213Z,12.10
2023-04-17T02:37:10.556Z,12.08
2023-04-17T02:39:37.472Z,12.07
2023-04-17T02:42:04.411Z,12.08
2023-04-17T02:44:31.552Z,12.10
2023-04-17T02:46:58.348Z,12.13
2023-04-17T02:57:08.951Z,12.22
2023-04-17T02:59:37.380Z,12.20
2023-04-17T03:02:05.681Z,12.20
2023-04-17T03:04:38.926Z,12.22
2023-04-17T03:07:07.141Z,12.24
2023-04-17T03:09:35.567Z,12.28
2023-04-17T03:12:06.048Z,12.30
2023-04-17T03:14:34.090Z,12.33
2023-04-17T03:17:02.112Z,12.33
2023-04-17T03:19:30.765Z,12.34
2023-04-17T03:21:58.959Z,12.35
2023-04-17T03:24:27.441Z,12.36
2023-04-17T03:26:56.304Z,12.36
2023-04-17T03:29:24.462Z,12.36
2023-04-17T03:31:52.906Z,12.33
2023-04-17T03:34:21.877Z,12.33
2023-04-17T03:36:50.674Z,12.33
2023-04-17T03:39:18.708Z,12.33
2023-04-17T03:41:47.162Z,12.33
2023-04-17T03:44:15.594Z,12.33
2023-04-17T03:46:43.488Z,12.34
2023-04-17T03:49:11.983Z,12.33
2023-04-17T03:51:42.766Z,12.31
2023-04-17T03:54:17.622Z,12.30
2023-04-17T03:56:47.170Z,12.27
2023-04-17T03:59:15.395Z,12.22
2023-04-17T04:01:46.570Z,12.20
2023-04-17T04:04:19.070Z,12.17
2023-04-17T04:06:49.546Z,12.14
2023-04-17T04:09:20.381Z,12.10
2023-04-17T04:11:48.511Z,12.09
2023-04-17T04:14:16.871Z,12.10
2023-04-17T04:16:47.002Z,12.12
2023-04-17T04:19:16.367Z,12.12
2023-04-17T04:21:45.333Z,12.10
2023-04-17T04:24:14.497Z,12.08
2023-04-17T04:26:43.543Z,12.11
2023-04-17T04:29:13.944Z,12.13
2023-04-17T04:31:53.798Z,12.12
2023-04-17T04:34:26.003Z,12.13
2023-04-17T04:36:57.019Z,12.15
2023-04-17T04:39:39.344Z,12.17
2023-04-17T04:42:10.119Z,12.21
2023-04-17T04:44:56.981Z,12.24
2023-04-17T04:47:26.955Z,12.26
2023-04-17T04:49:55.706Z,12.28
2023-04-17T04:52:24.077Z,12.30
2023-04-17T04:54:54.328Z,12.28
2023-04-17T04:57:22.579Z,12.28
2023-04-17T04:59:51.262Z,12.30
2023-04-17T05:02:33.304Z,12.33
2023-04-17T05:05:02.144Z,12.35
2023-04-17T05:07:32.381Z,12.38
2023-04-17T05:10:01.108Z,12.37
2023-04-17T05:12:33.270Z,12.35
2023-04-17T05:15:01.470Z,12.34
2023-04-17T05:17:30.157Z,12.37
2023-04-17T05:19:58.323Z,12.38
2023-04-17T05:22:27.753Z,12.39
2023-04-17T05:25:08.740Z,12.40
2023-04-17T05:27:36.868Z,12.40
2023-04-17T05:30:05.729Z,12.39
2023-04-17T05:32:35.174Z,12.39
2023-04-17T05:35:28.999Z,12.40
2023-04-17T05:37:57.531Z,12.40
2023-04-17T05:40:25.881Z,12.42
2023-04-17T05:42:54.016Z,12.43
2023-04-17T05:45:24.198Z,12.43
2023-04-17T05:47:53.733Z,12.42
2023-04-17T05:50:22.006Z,12.44
2023-04-17T05:52:50.869Z,12.47
2023-04-17T05:55:20.479Z,12.52
2023-04-17T05:57:49.739Z,12.59
2023-04-17T06:00:18.825Z,12.65
2023-04-17T06:02:49.962Z,12.71
2023-04-17T06:05:26.381Z,12.77
2023-04-17T06:07:54.527Z,12.80
2023-04-17T06:10:23.095Z,12.81
2023-04-17T06:12:51.476Z,12.83
2023-04-17T06:15:19.908Z,12.84
2023-04-17T06:17:48.078Z,12.80
2023-04-17T06:20:16.417Z,12.78
2023-04-17T06:22:46.851Z,12.79
2023-04-17T06:25:14.959Z,12.76
2023-04-17T06:27:43.506Z,12.76
2023-04-17T06:30:12.286Z,12.76
2023-04-17T06:32:49.092Z,12.77
2023-04-17T06:35:17.655Z,12.80
2023-04-17T06:37:49.351Z,12.83
2023-04-17T06:40:17.640Z,12.84
2023-04-17T06:42:45.783Z,12.85
2023-04-17T06:45:19.107Z,12.90
2023-04-17T06:47:47.309Z,12.92
2023-04-17T06:50:18.577Z,12.88
2023-04-17T06:52:46.748Z,12.88
2023-04-17T06:55:15.054Z,12.85
2023-04-17T06:57:43.001Z,12.83
2023-04-17T07:00:12.283Z,12.79
2023-04-17T07:02:40.982Z,12.77
2023-04-17T07:05:09.470Z,12.78
2023-04-17T07:07:37.791Z,12.80
2023-04-17T07:10:06.958Z,12.83
2023-04-17T07:12:35.302Z,12.87
2023-04-17T07:15:03.494Z,12.90
2023-04-17T07:17:32.006Z,12.94
2023-04-17T07:20:00.005Z,12.95
2023-04-17T07:22:28.962Z,13.00
2023-04-17T07:24:57.230Z,13.02
2023-04-17T07:27:25.621Z,13.02
2023-04-17T07:29:55.315Z,13.05
2023-04-17T07:32:26.249Z,13.10
2023-04-17T07:34:54.249Z,13.17
2023-04-17T07:37:22.291Z,13.21
2023-04-17T07:39:50.605Z,13.28
2023-04-17T07:42:18.656Z,13.35
2023-04-17T07:44:47.497Z,13.40
2023-04-17T07:47:15.616Z,13.48
2023-04-17T07:49:49.045Z,13.57
2023-04-17T07:52:18.312Z,13.63
2023-04-17T07:54:46.540Z,13.66
2023-04-17T07:57:15.483Z,13.71
2023-04-17T07:59:44.128Z,13.78
2023-04-17T08:02:12.404Z,13.88
2023-04-17T08:04:41.983Z,13.92
2023-04-17T08:07:11.397Z,14.00
2023-04-17T08:09:40.583Z,14.06
2023-04-17T08:12:09.934Z,14.10
2023-04-17T08:14:38.871Z,14.15
2023-04-17T08:17:07.826Z,14.14
2023-04-17T08:19:36.157Z,14.12
2023-04-17T08:22:04.822Z,14.12
2023-04-17T08:24:33.174Z,14.13
2023-04-17T08:27:01.641Z,14.17
2023-04-17T08:29:29.749Z,14.22
2023-04-17T08:32:10.863Z,14.26
2023-04-17T08:34:42.559Z,14.31
2023-04-17T08:37:10.851Z,14.40
2023-04-17T08:39:38.982Z,14.52
2023-04-17T08:42:08.044Z,14.67
2023-04-17T08:44:36.400Z,14.82
2023-04-17T08:47:05.658Z,14.94
2023-04-17T08:49:35.036Z,15.07
2023-04-17T08:52:08.265Z,15.21
2023-04-17T08:54:37.968Z,15.37
2023-04-17T08:57:06.323Z,15.51
2023-04-17T08:59:34.350Z,15.62
2023-04-17T09:02:07.498Z,15.72
2023-04-17T09:04:42.574Z,15.86
2023-04-17T09:07:12.187Z,16.03
2023-04-17T09:09:56.229Z,16.18
2023-04-17T09:12:25.414Z,16.44
2023-04-17T09:14:54.069Z,16.84
2023-04-17T09:17:22.248Z,17.19
2023-04-17T09:20:15.020Z,17.53
2023-04-17T09:22:43.364Z,18.05
2023-04-17T09:25:21.110Z,18.57
2023-04-17T09:27:49.314Z,19.02
2023-04-17T09:30:17.505Z,19.29
2023-04-17T09:32:45.710Z,19.55
2023-04-17T09:35:23.813Z,19.77
2023-04-17T09:37:52.965Z,19.77
2023-04-17T09:40:23.243Z,19.79
2023-04-17T09:42:56.169Z,19.78
2023-04-17T09:45:25.294Z,19.70
2023-04-17T09:47:56.140Z,19.32
2023-04-17T09:50:27.255Z,18.97
2023-04-17T09:52:56.222Z,18.64
2023-04-17T09:55:25.217Z,18.47
2023-04-17T09:57:54.272Z,18.32
2023-04-17T10:00:23.853Z,18.16
2023-04-17T10:02:52.380Z,18.05
2023-04-17T10:05:21.933Z,18.01
2023-04-17T10:07:50.175Z,17.97
2023-04-17T10:10:33.875Z,17.87
2023-04-17T10:13:03.393Z,17.73
2023-04-17T10:15:31.454Z,17.57
2023-04-17T10:18:23.853Z,17.49
2023-04-17T10:20:53.787Z,17.36
2023-04-17T10:23:31.692Z,17.17
2023-04-17T10:26:24.677Z,17.06
2023-04-17T10:28:53.852Z,16.96
2023-04-17T10:31:23.860Z,16.95
2023-04-17T10:33:54.316Z,16.90
2023-04-17T10:36:40.974Z,16.84
2023-04-17T10:39:16.345Z,16.74
2023-04-17T10:42:03.514Z,16.67
2023-04-17T10:44:35.653Z,16.65
2023-04-17T10:47:16.280Z,16.60
2023-04-17T10:49:55.671Z,16.47
2023-04-17T10:52:33.420Z,16.39
2023-04-17T10:55:05.750Z,16.37
2023-04-17T10:57:59.390Z,16.35
2023-04-17T11:00:32.320Z,16.30
2023-04-17T11:03:01.381Z,16.24
2023-04-17T11:05:31.492Z,16.21
2023-04-17T11:07:59.601Z,16.20
2023-04-17T11:10:27.933Z,16.22
2023-04-17T11:12:56.947Z,16.23
2023-04-17T11:15:32.123Z,16.30
2023-04-17T11:18:00.413Z,16.36
2023-04-17T11:20:30.252Z,16.41
2023-04-17T11:23:02.901Z,16.46
2023-04-17T11:25:33.955Z,16.53
2023-04-17T11:28:04.955Z,16.71
2023-04-17T11:30:34.652Z,17.00
2023-04-17T11:33:04.261Z,17.26
2023-04-17T11:35:34.126Z,17.48
2023-04-17T11:38:28.677Z,17.79
2023-04-17T11:41:00.456Z,18.07
2023-04-17T11:43:29.584Z,18.22
2023-04-17T11:45:59.262Z,18.28
2023-04-17T11:48:28.498Z,18.33
2023-04-17T11:51:04.120Z,18.31
2023-04-17T11:53:34.539Z,18.31
2023-04-17T11:56:22.337Z,18.40
2023-04-17T11:58:54.709Z,18.55
2023-04-17T12:01:25.008Z,18.74
2023-04-17T12:03:57.210Z,19.00
2023-04-17T12:06:37.914Z,19.29
2023-04-17T12:09:07.444Z,19.50
2023-04-17T12:11:36.090Z,19.60
2023-04-17T12:14:11.863Z,19.65
2023-04-17T12:16:40.216Z,19.64
2023-04-17T12:19:08.847Z,19.67
2023-04-17T12:21:37.274Z,19.74
2023-04-17T12:24:05.942Z,19.79
2023-04-17T12:26:34.070Z,19.77
2023-04-17T12:29:02.239Z,19.65
2023-04-17T12:31:31.018Z,19.60
2023-04-17T12:33:58.933Z,19.61
2023-04-17T12:36:27.056Z,19.50
2023-04-17T12:38:55.426Z,19.41
2023-04-17T12:41:26.676Z,19.35
2023-04-17T12:43:54.779Z,19.39
2023-04-17T12:46:23.077Z,19.45
2023-04-17T12:48:58.363Z,19.45
2023-04-17T12:51:30.719Z,19.45
2023-04-17T12:53:58.769Z,19.45
2023-04-17T12:56:26.787Z,19.42
2023-04-17T12:58:54.800Z,19.36
2023-04-17T13:01:22.980Z,19.30
2023-04-17T13:03:51.233Z,19.21
2023-04-17T13:06:21.599Z,19.19
2023-04-17T13:08:49.980Z,19.17
2023-04-17T13:11:17.969Z,19.09
2023-04-17T13:13:46.229Z,19.09
2023-04-17T13:16:14.362Z,19.11
2023-04-17T13:18:42.626Z,19.16
2023-04-17T13:21:10.781Z,19.12
2023-04-17T13:23:38.854Z,19.03
2023-04-17T13:26:06.851Z,18.94
2023-04-17T13:28:34.863Z,18.87
2023-04-17T13:31:03.332Z,18.77
2023-04-17T13:33:31.754Z,18.71
2023-04-17T13:35:59.740Z,18.67
2023-04-17T13:38:27.891Z,18.70
2023-04-17T13:40:56.046Z,18.69
2023-04-17T13:43:24.455Z,18.63
2023-04-17T13:45:55.408Z,18.63
2023-04-17T13:48:23.912Z,18.59
2023-04-17T13:50:52.131Z,18.58
2023-04-17T13:53:20.399Z,18.58
2023-04-17T13:55:49.468Z,18.60
2023-04-17T13:58:17.705Z,18.63
2023-04-17T14:00:46.720Z,18.69
2023-04-17T14:03:14.982Z,18.72
2023-04-17T14:05:43.211Z,18.68
2023-04-17T14:08:11.550Z,18.69
2023-04-17T14:10:39.585Z,18.67
2023-04-17T14:13:07.717Z,18.64
2023-04-17T14:15:36.571Z,18.63
2023-04-17T14:18:05.145Z,18.59
2023-04-17T14:20:33.561Z,18.54
2023-04-17T14:23:01.805Z,18.46
2023-04-17T14:25:29.915Z,18.37
2023-04-17T14:27:57.952Z,18.30
2023-04-17T14:30:26.204Z,18.25
2023-04-17T14:32:54.583Z,18.23
2023-04-17T14:35:23.583Z,18.19
2023-04-17T14:37:51.553Z,18.18
2023-04-17T14:40:19.556Z,18.15
2023-04-17T14:42:54.034Z,18.11
2023-04-17T14:45:22.901Z,18.10
2023-04-17T14:47:51.212Z,18.06
2023-04-17T14:50:19.698Z,18.00
2023-04-17T14:52:47.904Z,17.94
2023-04-17T14:55:16.042Z,17.87
2023-04-17T14:57:44.276Z,17.81
2023-04-17T15:00:13.030Z,17.72
2023-04-17T15:02:41.472Z,17.60
2023-04-17T15:05:10.075Z,17.56
2023-04-17T15:07:38.961Z,17.53
2023-04-17T15:10:07.569Z,17.48
2023-04-17T15:12:35.958Z,17.45
2023-04-17T15:15:05.140Z,17.44
2023-04-17T15:17:33.906Z,17.40
2023-04-17T15:20:01.998Z,17.31
2023-04-17T15:22:30.412Z,17.26
2023-04-17T15:24:58.678Z,17.23
2023-04-17T15:27:26.733Z,17.20
2023-04-17T15:29:54.845Z,17.15
2023-04-17T15:32:23.157Z,17.12
2023-04-17T15:34:51.426Z,17.08
2023-04-17T15:37:19.462Z,17.05
2023-04-17T15:39:47.784Z,17.02
2023-04-17T15:42:16.153Z,16.98
2023-04-17T15:44:44.169Z,16.93
2023-04-17T15:47:12.093Z,16.87
2023-04-17T15:49:40.432Z,16.80
2023-04-17T15:52:08.770Z,16.71
2023-04-17T15:54:37.854Z,16.68
2023-04-17T16:04:43.972Z,16.60
2023-04-17T16:07:12.377Z,16.52
2023-04-17T16:09:41.876Z,16.53
2023-04-17T16:12:10.356Z,16.49
2023-04-17T16:14:38.641Z,16.46
2023-04-17T16:17:07.246Z,16.43
2023-04-17T16:19:35.625Z,16.39
2023-04-17T16:22:03.996Z,16.34
2023-04-17T16:24:32.209Z,16.31
2023-04-17T16:27:01.243Z,16.27
2023-04-17T16:29:29.537Z,16.24
2023-04-17T16:31:58.275Z,16.20
2023-04-17T16:34:26.539Z,16.15
2023-04-17T16:36:54.476Z,16.10
2023-04-17T16:39:22.631Z,16.05
2023-04-17T16:41:52.927Z,16.00
2023-04-17T16:44:21.331Z,15.95
2023-04-17T16:47:09.349Z,15.90
2023-04-17T16:49:38.329Z,15.84
2023-04-17T16:52:06.454Z,15.80
2023-04-17T16:54:34.920Z,15.75
2023-04-17T16:57:06.152Z,15.69
2023-04-17T16:59:34.469Z,15.63
2023-04-17T17:02:02.904Z,15.57
2023-04-17T17:04:31.476Z,15.52
2023-04-17T17:06:59.588Z,15.46
2023-04-17T17:09:27.912Z,15.42
2023-04-17T17:11:56.977Z,15.38
2023-04-17T17:14:24.994Z,15.33
2023-04-17T17:16:53.728Z,15.30
2023-04-17T17:19:22.111Z,15.26
2023-04-17T17:21:50.678Z,15.22
2023-04-17T17:24:18.719Z,15.18
2023-04-17T17:26:46.886Z,15.15
2023-04-17T17:29:15.424Z,15.13
2023-04-17T17:31:43.838Z,15.12
2023-04-17T17:36:43.759Z,15.10
2023-04-17T17:39:12.143Z,15.09
2023-04-17T17:41:40.813Z,15.09
2023-04-17T17:44:08.960Z,15.08
2023-04-17T17:46:37.576Z,15.07
2023-04-17T17:49:05.945Z,15.05
2023-04-17T17:51:34.127Z,15.03
2023-04-17T17:54:02.329Z,15.01
2023-04-17T17:56:30.724Z,14.99
2023-04-17T17:58:59.163Z,14.98
2023-04-17T18:01:27.319Z,14.99
2023-04-17T18:03:55.960Z,14.99
2023-04-17T18:06:25.274Z,14.96
2023-04-17T18:08:54.200Z,14.93
2023-04-17T18:11:23.039Z,14.92
2023-04-17T18:13:51.327Z,14.91
2023-04-17T18:16:19.839Z,14.89
2023-04-17T18:18:48.006Z,14.88
2023-04-17T18:21:16.176Z,14.86
2023-04-17T18:23:44.485Z,14.85
2023-04-17T18:26:13.175Z,14.85
2023-04-17T18:28:42.741Z,14.84
2023-04-17T18:31:11.219Z,14.82
2023-04-17T18:33:39.444Z,14.81
2023-04-17T18:36:08.808Z,14.79
2023-04-17T18:38:37.291Z,14.78
2023-04-17T18:41:05.989Z,14.77
2023-04-17T18:43:34.643Z,14.76
2023-04-17T18:46:04.940Z,14.75
2023-04-17T18:48:34.277Z,14.75
2023-04-17T18:51:12.774Z,14.75
2023-04-17T18:53:40.906Z,14.74
2023-04-17T18:56:10.904Z,14.73
2023-04-17T18:58:40.535Z,14.73
2023-04-17T19:01:10.731Z,14.73
2023-04-17T19:03:39.621Z,14.73
2023-04-17T19:06:07.757Z,14.73
2023-04-17T19:08:36.409Z,14.72
2023-04-17T19:11:04.419Z,14.73
2023-04-17T19:13:32.766Z,14.75
2023-04-17T19:16:01.056Z,14.75
2023-04-17T19:18:29.932Z,14.75
2023-04-17T19:20:58.086Z,14.75
2023-04-17T19:23:26.621Z,14.75
2023-04-17T19:25:55.208Z,14.74
2023-04-17T19:28:23.548Z,14.72
2023-04-17T19:30:51.742Z,14.72
2023-04-17T19:33:20.370Z,14.70
2023-04-17T19:35:52.533Z,14.69
2023-04-17T19:38:21.576Z,14.68
2023-04-17T19:41:17.486Z,14.68
2023-04-17T19:43:52.668Z,14.65
2023-04-17T19:46:21.771Z,14.63
2023-04-17T19:48:51.010Z,14.62
2023-04-17T19:51:19.336Z,14.59
2023-04-17T19:53:48.215Z,14.57
2023-04-17T19:56:16.504Z,14.55
2023-04-17T19:58:44.730Z,14.53
2023-04-17T20:01:12.981Z,14.50
2023-04-17T20:03:42.390Z,14.47
2023-04-17T20:06:10.792Z,14.45
2023-04-17T20:08:39.395Z,14.41
2023-04-17T20:11:12.204Z,14.39
2023-04-17T20:13:40.443Z,14.35
2023-04-17T20:16:08.542Z,14.33
2023-04-17T20:18:37.990Z,14.31
2023-04-17T20:21:06.587Z,14.28
2023-04-17T20:23:34.972Z,14.26
2023-04-17T20:26:03.514Z,14.24
2023-04-17T20:28:31.808Z,14.22
2023-04-17T20:30:59.973Z,14.20
2023-04-17T20:33:28.083Z,14.19
2023-04-17T20:35:56.411Z,14.19
2023-04-17T20:38:24.742Z,14.18
2023-04-17T20:40:52.794Z,14.16
2023-04-17T20:43:21.095Z,14.15
2023-04-17T20:45:49.765Z,14.14
2023-04-17T20:48:18.762Z,14.11
2023-04-17T20:50:46.874Z,14.11
2023-04-17T20:53:14.959Z,14.08
2023-04-17T20:55:43.069Z,14.06
2023-04-17T20:58:11.027Z,14.04
2023-04-17T21:00:44.855Z,14.04
2023-04-17T21:03:22.250Z,14.01
2023-04-17T21:05:50.263Z,14.00
2023-04-17T21:08:18.368Z,13.97
2023-04-17T21:10:46.375Z,13.95
2023-04-17T21:13:14.272Z,13.92
2023-04-17T21:15:42.334Z,13.89
2023-04-17T21:18:10.365Z,13.87
2023-04-17T21:20:38.956Z,13.84
2023-04-17T21:23:06.892Z,13.82
2023-04-17T21:25:35.849Z,13.80
2023-04-17T21:28:03.820Z,13.75
2023-04-17T21:30:32.074Z,13.72
2023-04-17T21:33:00.120Z,13.69
2023-04-17T21:35:28.197Z,13.67
2023-04-17T21:37:56.457Z,13.63
2023-04-17T21:40:26.143Z,13.60
2023-04-17T21:42:54.255Z,13.56
2023-04-17T21:45:22.199Z,13.53
2023-04-17T21:47:50.186Z,13.50
2023-04-17T21:50:18.315Z,13.47
2023-04-17T21:52:46.218Z,13.43
2023-04-17T21:55:14.128Z,13.39
2023-04-17T21:57:42.165Z,13.37
2023-04-17T22:00:14.520Z,13.33
2023-04-17T22:02:42.697Z,13.30
2023-04-17T22:05:11.628Z,13.26
2023-04-17T22:07:53.687Z,13.23
2023-04-17T22:10:23.835Z,13.20
2023-04-17T22:12:51.790Z,13.17
2023-04-17T22:15:19.703Z,13.13
2023-04-17T22:17:47.627Z,13.09
2023-04-17T22:20:15.792Z,13.06
2023-04-17T22:22:43.861Z,13.02
2023-04-17T22:25:11.795Z,12.99
2023-04-17T22:27:40.309Z,12.95
2023-04-17T22:30:08.473Z,12.92
2023-04-17T22:32:37.446Z,12.90
2023-04-17T22:35:06.590Z,12.87
2023-04-17T22:37:34.510Z,12.86
2023-04-17T22:40:02.571Z,12.85
2023-04-17T22:42:30.873Z,12.82
2023-04-17T22:44:58.786Z,12.80
2023-04-17T22:47:26.738Z,12.77
2023-04-17T22:49:55.157Z,12.76
2023-04-17T22:52:23.074Z,12.77
2023-04-17T22:54:51.001Z,12.77
2023-04-17T22:57:18.994Z,12.75
2023-04-17T22:59:46.942Z,12.74
2023-04-17T23:02:14.908Z,12.72
2023-04-17T23:04:42.871Z,12.71
2023-04-17T23:07:10.811Z,12.69
2023-04-17T23:09:39.149Z,12.67
2023-04-17T23:12:07.299Z,12.66
2023-04-17T23:14:35.491Z,12.65
2023-04-17T23:17:03.506Z,12.65
2023-04-17T23:19:31.841Z,12.63
2023-04-17T23:22:01.132Z,12.63
2023-04-17T23:24:32.230Z,12.63
2023-04-17T23:27:01.536Z,12.62
2023-04-17T23:29:29.436Z,12.62
2023-04-17T23:31:57.346Z,12.61
2023-04-17T23:34:26.068Z,12.61
2023-04-17T23:36:53.975Z,12.61
2023-04-17T23:39:22.340Z,12.60
2023-04-17T23:41:50.716Z,12.59
2023-04-17T23:44:18.856Z,12.61
2023-04-17T23:46:46.899Z,12.59
2023-04-17T23:49:14.778Z,12.60
2023-04-17T23:51:42.647Z,12.60
2023-04-17T23:54:10.569Z,12.60
2023-04-17T23:56:38.627Z,12.60
2023-04-17T23:59:06.908Z,12.61
